createdAt,value
2018-10-03T00:02:25.430Z,3.20
2018-10-03T00:04:54.040Z,3.07
2018-10-03T00:07:22.744Z,2.60
2018-10-03T00:09:51.227Z,2.77
2018-10-03T00:12:19.626Z,3.70
2018-10-03T00:14:48.008Z,2.90
2018-10-03T00:17:16.406Z,2.67
2018-10-03T00:19:44.804Z,2.83
2018-10-03T00:22:13.190Z,2.83
2018-10-03T00:24:41.811Z,3.10
2018-10-03T00:27:10.307Z,2.27
2018-10-03T00:29:38.711Z,3.13
2018-10-03T00:32:07.156Z,3.00
2018-10-03T00:34:35.552Z,2.50
2018-10-03T00:37:04.166Z,3.33
2018-10-03T00:39:32.864Z,3.40
2018-10-03T00:42:01.343Z,3.00
2018-10-03T00:44:29.751Z,3.20
2018-10-03T00:46:58.162Z,3.27
2018-10-03T00:49:26.555Z,3.00
2018-10-03T00:51:54.954Z,3.70
2018-10-03T00:54:23.368Z,3.57
2018-10-03T00:56:51.760Z,3.13
2018-10-03T00:59:20.138Z,3.60
2018-10-03T01:01:48.557Z,3.87
2018-10-03T01:04:16.943Z,4.13
2018-10-03T01:06:45.339Z,3.80
2018-10-03T01:09:13.756Z,3.73
2018-10-03T01:11:42.155Z,4.27
2018-10-03T01:14:10.540Z,3.60
2018-10-03T01:16:38.951Z,3.57
2018-10-03T01:19:07.347Z,3.60
2018-10-03T01:21:35.744Z,3.27
2018-10-03T01:24:04.364Z,4.37
2018-10-03T01:26:32.859Z,3.43
2018-10-03T01:29:01.234Z,3.80
2018-10-03T01:31:29.647Z,4.30
2018-10-03T01:33:58.043Z,3.87
2018-10-03T01:36:26.442Z,4.17
2018-10-03T01:38:54.860Z,3.30
2018-10-03T01:41:23.271Z,3.37
2018-10-03T01:43:51.663Z,3.43
2018-10-03T01:46:20.074Z,4.07
2018-10-03T01:48:48.707Z,4.00
2018-10-03T01:51:17.196Z,3.73
2018-10-03T01:53:45.627Z,3.90
2018-10-03T01:56:14.019Z,4.37
2018-10-03T01:58:42.619Z,4.57
2018-10-03T02:01:11.159Z,4.13
2018-10-03T02:03:39.759Z,4.33
2018-10-03T02:06:08.244Z,5.13
2018-10-03T02:08:36.639Z,4.70
2018-10-03T02:11:05.034Z,4.07
2018-10-03T02:13:33.663Z,4.77
2018-10-03T02:16:02.464Z,4.93
2018-10-03T02:18:30.952Z,5.13
2018-10-03T02:20:59.349Z,5.10
2018-10-03T02:23:27.748Z,4.70
2018-10-03T02:25:56.368Z,4.57
2018-10-03T02:28:24.849Z,4.50
2018-10-03T02:30:53.274Z,5.53
2018-10-03T02:33:21.674Z,5.93
2018-10-03T02:35:50.276Z,5.07
2018-10-03T02:38:18.768Z,4.33
2018-10-03T02:40:47.156Z,4.17
2018-10-03T02:43:15.532Z,4.77
2018-10-03T02:45:44.162Z,4.20
2018-10-03T02:48:12.855Z,4.73
2018-10-03T02:50:41.355Z,4.00
2018-10-03T02:53:09.780Z,3.70
2018-10-03T02:55:38.200Z,4.60
2018-10-03T02:58:06.583Z,4.03
2018-10-03T03:00:34.980Z,4.23
2018-10-03T03:03:03.368Z,4.73
2018-10-03T03:05:31.769Z,4.63
2018-10-03T03:08:00.383Z,3.20
2018-10-03T03:10:28.851Z,4.30
2018-10-03T03:12:57.255Z,4.23
2018-10-03T03:15:25.672Z,4.23
2018-10-03T03:17:54.063Z,3.93
2018-10-03T03:20:22.472Z,4.30
2018-10-03T03:22:50.874Z,3.43
2018-10-03T03:25:19.275Z,3.17
2018-10-03T03:27:47.659Z,3.73
2018-10-03T03:30:16.053Z,4.00
2018-10-03T03:32:44.676Z,4.27
2018-10-03T03:35:13.163Z,4.13
2018-10-03T03:37:41.558Z,3.90
2018-10-03T03:40:09.945Z,4.50
2018-10-03T03:42:38.340Z,3.87
2018-10-03T03:45:07.019Z,4.43
2018-10-03T03:47:35.701Z,4.30
2018-10-03T03:50:04.191Z,3.83
2018-10-03T03:52:32.595Z,4.67
2018-10-03T03:55:00.988Z,3.70
2018-10-03T03:57:29.608Z,3.90
2018-10-03T03:59:58.311Z,3.37
2018-10-03T04:02:26.797Z,4.03
2018-10-03T04:04:55.184Z,4.60
2018-10-03T04:07:23.572Z,2.97
2018-10-03T04:09:52.186Z,4.13
2018-10-03T04:12:20.675Z,3.73
2018-10-03T04:14:49.083Z,4.23
2018-10-03T04:17:17.467Z,4.13
2018-10-03T04:19:45.855Z,5.10
2018-10-03T04:22:14.256Z,3.10
2018-10-03T04:24:42.632Z,3.73
2018-10-03T04:27:11.012Z,4.87
2018-10-03T04:29:39.448Z,3.53
2018-10-03T04:32:07.878Z,3.70
2018-10-03T04:34:36.267Z,4.43
2018-10-03T04:37:04.683Z,3.40
2018-10-03T04:39:33.075Z,3.77
2018-10-03T04:42:01.530Z,3.97
2018-10-03T04:44:29.867Z,3.43
2018-10-03T04:46:58.278Z,3.37
2018-10-03T04:49:26.690Z,4.47
2018-10-03T04:51:55.107Z,3.30
2018-10-03T04:54:23.500Z,5.13
2018-10-03T04:56:51.910Z,4.03
2018-10-03T04:59:20.330Z,3.00
2018-10-03T05:01:48.737Z,4.23
2018-10-03T05:04:17.139Z,2.97
2018-10-03T05:06:45.544Z,2.97
2018-10-03T05:09:13.942Z,3.37
2018-10-03T05:11:42.373Z,2.93
2018-10-03T05:14:10.816Z,3.47
2018-10-03T05:16:39.195Z,3.53
2018-10-03T05:19:07.597Z,3.33
2018-10-03T05:21:36.036Z,3.13
2018-10-03T05:24:04.659Z,3.37
2018-10-03T05:26:33.146Z,3.30
2018-10-03T05:29:01.548Z,2.77
2018-10-03T05:31:29.948Z,2.10
2018-10-03T05:33:58.600Z,2.80
2018-10-03T05:36:27.118Z,3.93
2018-10-03T05:38:55.829Z,2.87
2018-10-03T05:41:24.323Z,2.73
2018-10-03T05:43:52.748Z,3.17
2018-10-03T05:46:21.176Z,2.60
2018-10-03T05:48:49.783Z,3.17
2018-10-03T05:51:18.279Z,2.73
2018-10-03T05:53:46.854Z,2.83
2018-10-03T05:56:15.257Z,2.13
2018-10-03T05:58:43.661Z,2.73
2018-10-03T06:01:12.376Z,2.60
2018-10-03T06:03:41.168Z,2.57
2018-10-03T06:06:10.517Z,2.33
2018-10-03T06:08:39.566Z,2.87
2018-10-03T06:11:08.062Z,2.23
2018-10-03T06:13:36.478Z,3.17
2018-10-03T06:16:04.990Z,2.77
2018-10-03T06:18:33.394Z,2.63
2018-10-03T06:21:01.788Z,2.40
2018-10-03T06:23:30.188Z,2.50
2018-10-03T06:25:58.627Z,2.97
2018-10-03T06:28:27.031Z,2.33
2018-10-03T06:30:55.623Z,2.60
2018-10-03T06:33:23.997Z,2.43
2018-10-03T06:35:52.445Z,2.80
2018-10-03T06:38:21.097Z,3.23
2018-10-03T06:40:49.821Z,3.67
2018-10-03T06:43:18.324Z,2.50
2018-10-03T06:45:46.779Z,2.43
2018-10-03T06:48:15.206Z,2.37
2018-10-03T06:50:43.616Z,2.80
2018-10-03T06:53:12.091Z,2.93
2018-10-03T06:55:40.475Z,2.80
2018-10-03T06:58:08.883Z,2.73
2018-10-03T07:00:37.271Z,2.80
2018-10-03T07:03:05.694Z,2.40
2018-10-03T07:05:34.087Z,4.37
2018-10-03T07:08:02.656Z,4.80
2018-10-03T07:10:31.040Z,2.83
2018-10-03T07:12:59.457Z,2.47
2018-10-03T07:15:27.844Z,2.93
2018-10-03T07:17:56.487Z,3.10
2018-10-03T07:20:24.996Z,2.87
2018-10-03T07:22:53.433Z,2.83
2018-10-03T07:25:21.916Z,2.50
2018-10-03T07:27:50.506Z,4.10
2018-10-03T07:30:19.141Z,3.20
2018-10-03T07:32:47.659Z,2.50
2018-10-03T07:35:16.197Z,3.23
2018-10-03T07:37:44.599Z,3.00
2018-10-03T07:40:12.999Z,2.60
2018-10-03T07:42:41.434Z,2.90
2018-10-03T07:45:10.020Z,2.80
2018-10-03T07:47:38.394Z,2.30
2018-10-03T07:50:07.031Z,2.77
2018-10-03T07:52:35.914Z,3.00
2018-10-03T07:55:04.476Z,3.20
2018-10-03T07:57:32.910Z,2.80
2018-10-03T08:00:01.300Z,2.63
2018-10-03T08:02:29.695Z,2.13
2018-10-03T08:04:58.113Z,2.70
2018-10-03T08:07:26.851Z,2.50
2018-10-03T08:09:55.390Z,2.80
2018-10-03T08:12:23.763Z,3.17
2018-10-03T08:14:52.230Z,2.20
2018-10-03T08:17:20.673Z,3.33
2018-10-03T08:19:49.055Z,2.50
2018-10-03T08:22:17.498Z,2.43
2018-10-03T08:24:46.200Z,2.40
2018-10-03T08:27:14.987Z,2.13
2018-10-03T08:29:43.576Z,2.80
2018-10-03T08:32:12.239Z,2.43
2018-10-03T08:34:41.242Z,1.80
2018-10-03T08:37:09.707Z,2.03
2018-10-03T08:39:38.128Z,2.07
2018-10-03T08:42:06.756Z,2.40
2018-10-03T08:44:35.139Z,2.13
2018-10-03T08:47:03.522Z,2.27
2018-10-03T08:49:32.221Z,2.10
2018-10-03T08:52:01.061Z,2.07
2018-10-03T08:54:29.516Z,2.13
2018-10-03T08:56:58.206Z,2.37
2018-10-03T08:59:27.064Z,2.10
2018-10-03T09:01:55.607Z,2.73
2018-10-03T09:04:24.279Z,2.53
2018-10-03T09:06:53.106Z,2.13
2018-10-03T09:09:21.597Z,3.17
2018-10-03T09:11:50.290Z,1.97
2018-10-03T09:14:19.148Z,2.33
2018-10-03T09:16:47.786Z,2.07
2018-10-03T09:19:16.256Z,2.20
2018-10-03T09:21:44.749Z,2.07
2018-10-03T09:24:13.812Z,1.83
2018-10-03T09:26:42.371Z,1.80
2018-10-03T09:29:11.013Z,1.70
2018-10-03T09:31:39.539Z,1.93
2018-10-03T09:34:08.330Z,1.87
2018-10-03T09:36:36.971Z,2.00
2018-10-03T09:39:07.124Z,2.23
2018-10-03T09:41:35.787Z,2.10
2018-10-03T09:44:04.713Z,1.90
2018-10-03T09:46:33.351Z,2.30
2018-10-03T09:49:02.477Z,2.30
2018-10-03T09:51:32.080Z,1.80
2018-10-03T09:54:00.921Z,2.43
2018-10-03T09:56:29.583Z,2.40
2018-10-03T09:58:58.769Z,2.23
2018-10-03T10:01:29.908Z,2.77
2018-10-03T10:04:01.671Z,2.20
2018-10-03T10:06:32.028Z,2.50
2018-10-03T10:09:00.844Z,2.60
2018-10-03T10:11:29.407Z,2.50
2018-10-03T10:13:57.939Z,2.80
2018-10-03T10:16:26.416Z,2.37
2018-10-03T10:18:54.829Z,1.97
2018-10-03T10:21:23.343Z,2.37
2018-10-03T10:23:51.948Z,2.50
2018-10-03T10:26:20.427Z,2.23
2018-10-03T10:28:49.112Z,2.27
2018-10-03T10:31:17.723Z,1.80
2018-10-03T10:33:46.411Z,2.27
2018-10-03T10:36:15.192Z,2.00
2018-10-03T10:38:43.700Z,2.33
2018-10-03T10:41:12.594Z,3.37
2018-10-03T10:43:41.183Z,2.20
2018-10-03T10:46:09.729Z,2.00
2018-10-03T10:48:38.408Z,2.43
2018-10-03T10:51:07.188Z,2.27
2018-10-03T10:53:36.177Z,2.10
2018-10-03T10:56:04.760Z,2.60
2018-10-03T10:58:33.244Z,2.80
2018-10-03T11:01:01.649Z,1.90
2018-10-03T11:03:30.315Z,2.60
2018-10-03T11:05:58.777Z,2.33
2018-10-03T11:08:27.603Z,2.50
2018-10-03T11:10:56.015Z,2.37
2018-10-03T11:13:24.650Z,2.40
2018-10-03T11:15:53.164Z,2.87
2018-10-03T11:18:21.551Z,1.80
2018-10-03T11:20:50.300Z,2.00
2018-10-03T11:23:18.794Z,2.30
2018-10-03T11:25:47.269Z,2.20
2018-10-03T11:28:15.906Z,2.10
2018-10-03T11:30:44.681Z,2.33
2018-10-03T11:33:13.383Z,2.10
2018-10-03T11:35:42.087Z,2.20
2018-10-03T11:38:10.811Z,2.27
2018-10-03T11:40:39.368Z,2.20
2018-10-03T11:43:07.750Z,2.20
2018-10-03T11:45:36.167Z,2.37
2018-10-03T11:48:04.736Z,2.30
2018-10-03T11:50:33.510Z,2.10
2018-10-03T11:53:02.199Z,2.27
2018-10-03T11:55:30.951Z,2.97
2018-10-03T11:57:59.525Z,2.03
2018-10-03T12:00:28.192Z,2.70
2018-10-03T12:02:56.926Z,1.57
2018-10-03T12:05:25.250Z,1.83
2018-10-03T12:07:53.667Z,2.13
2018-10-03T12:10:22.056Z,2.10
2018-10-03T12:12:50.711Z,1.80
2018-10-03T12:15:19.131Z,2.40
2018-10-03T12:17:47.511Z,1.83
2018-10-03T12:20:15.910Z,2.00
2018-10-03T12:22:44.320Z,1.63
2018-10-03T12:25:12.805Z,1.73
2018-10-03T12:27:41.355Z,2.20
2018-10-03T12:30:09.839Z,1.80
2018-10-03T12:32:38.238Z,1.70
2018-10-03T12:35:06.638Z,2.03
2018-10-03T12:37:35.245Z,1.63
2018-10-03T12:40:03.815Z,1.80
2018-10-03T12:42:32.664Z,1.87
2018-10-03T12:45:01.448Z,1.70
2018-10-03T12:47:30.079Z,2.17
2018-10-03T12:49:58.796Z,2.00
2018-10-03T12:52:27.759Z,1.73
2018-10-03T12:54:56.164Z,1.53
2018-10-03T12:57:24.612Z,2.10
2018-10-03T12:59:53.072Z,1.90
2018-10-03T13:02:21.461Z,1.87
2018-10-03T13:04:50.084Z,1.87
2018-10-03T13:07:18.766Z,1.70
2018-10-03T13:09:47.752Z,1.77
2018-10-03T13:12:16.604Z,1.67
2018-10-03T13:14:45.111Z,2.00
2018-10-03T13:17:14.551Z,2.00
2018-10-03T13:19:43.411Z,1.77
2018-10-03T13:22:11.951Z,2.20
2018-10-03T13:24:40.487Z,1.73
2018-10-03T13:27:08.900Z,1.80
2018-10-03T13:29:37.420Z,1.27
2018-10-03T13:32:05.860Z,2.00
2018-10-03T13:34:34.501Z,1.70
2018-10-03T13:37:03.749Z,2.10
2018-10-03T13:39:32.735Z,2.00
2018-10-03T13:42:01.920Z,1.70
2018-10-03T13:44:33.067Z,2.87
2018-10-03T13:47:01.543Z,2.40
2018-10-03T13:49:30.259Z,2.43
2018-10-03T13:51:58.843Z,1.90
2018-10-03T13:54:27.406Z,1.47
2018-10-03T13:56:55.967Z,2.70
2018-10-03T13:59:24.368Z,4.60
2018-10-03T14:01:52.882Z,1.93
2018-10-03T14:04:21.266Z,2.00
2018-10-03T14:06:49.650Z,1.87
2018-10-03T14:09:18.053Z,2.33
2018-10-03T14:11:47.282Z,1.90
2018-10-03T14:14:16.028Z,1.60
2018-10-03T14:19:27.818Z,1.63
2018-10-03T14:21:56.274Z,1.73
2018-10-03T14:24:24.953Z,1.63
2018-10-03T14:26:53.428Z,1.60
2018-10-03T14:29:21.822Z,2.27
2018-10-03T14:31:50.272Z,1.53
2018-10-03T14:34:18.761Z,1.63
2018-10-03T14:36:47.145Z,1.43
2018-10-03T14:39:15.756Z,1.60
2018-10-03T14:41:44.286Z,1.70
2018-10-03T14:44:12.709Z,1.50
2018-10-03T14:46:41.198Z,1.93
2018-10-03T14:49:09.679Z,1.73
2018-10-03T14:51:38.138Z,2.00
2018-10-03T14:54:06.520Z,2.13
2018-10-03T14:56:35.240Z,2.00
2018-10-03T14:59:03.727Z,1.80
2018-10-03T15:01:32.228Z,1.57
2018-10-03T15:04:00.624Z,1.73
2018-10-03T15:06:29.085Z,1.77
2018-10-03T15:08:57.480Z,1.73
2018-10-03T15:11:26.115Z,2.10
2018-10-03T15:13:54.860Z,2.27
2018-10-03T15:16:23.332Z,2.10
2018-10-03T15:18:51.838Z,1.73
2018-10-03T15:21:20.242Z,2.07
2018-10-03T15:23:48.862Z,1.77
2018-10-03T15:26:17.360Z,2.00
2018-10-03T15:28:45.895Z,2.10
2018-10-03T15:31:14.325Z,2.33
2018-10-03T15:33:43.159Z,2.23
2018-10-03T15:36:11.639Z,2.10
2018-10-03T15:38:40.415Z,2.27
2018-10-03T15:41:08.959Z,1.90
2018-10-03T15:43:37.372Z,2.30
2018-10-03T15:46:05.967Z,1.63
2018-10-03T15:48:34.380Z,2.27
2018-10-03T15:51:02.820Z,1.87
2018-10-03T15:53:31.395Z,1.90
2018-10-03T15:55:59.888Z,1.87
2018-10-03T15:58:28.354Z,2.43
2018-10-03T16:00:56.824Z,2.57
2018-10-03T16:03:25.871Z,1.83
2018-10-03T16:05:54.933Z,2.33
2018-10-03T16:08:25.042Z,2.10
2018-10-03T16:10:53.746Z,1.90
2018-10-03T16:13:22.651Z,1.73
2018-10-03T16:15:51.216Z,1.93
2018-10-03T16:18:19.695Z,2.30
2018-10-03T16:20:48.127Z,2.33
2018-10-03T16:23:17.059Z,2.00
2018-10-03T16:25:45.487Z,1.70
2018-10-03T16:28:14.833Z,1.53
2018-10-03T16:30:48.574Z,1.93
2018-10-03T16:33:17.703Z,1.90
2018-10-03T16:35:46.468Z,2.30
2018-10-03T16:38:15.228Z,2.53
2018-10-03T16:40:53.790Z,1.90
2018-10-03T16:43:22.223Z,2.23
2018-10-03T16:45:51.428Z,1.90
2018-10-03T16:48:20.097Z,2.30
2018-10-03T16:50:48.503Z,3.23
2018-10-03T16:53:18.025Z,2.20
2018-10-03T16:55:46.634Z,2.10
2018-10-03T16:58:15.294Z,2.47
2018-10-03T17:00:44.075Z,2.70
2018-10-03T17:03:12.960Z,1.97
2018-10-03T17:05:42.451Z,1.70
2018-10-03T17:08:10.883Z,2.63
2018-10-03T17:10:39.492Z,2.47
2018-10-03T17:13:08.023Z,2.33
2018-10-03T17:15:36.620Z,2.20
2018-10-03T17:18:05.396Z,2.43
2018-10-03T17:20:33.903Z,2.47
2018-10-03T17:23:02.328Z,2.37
2018-10-03T17:25:30.732Z,2.50
2018-10-03T17:27:59.445Z,1.90
2018-10-03T17:30:27.924Z,2.43
2018-10-03T17:32:56.325Z,2.40
2018-10-03T17:35:24.822Z,2.20
2018-10-03T17:37:53.213Z,1.70
2018-10-03T17:40:22.359Z,1.90
2018-10-03T17:42:50.768Z,1.80
2018-10-03T17:45:19.415Z,2.00
2018-10-03T17:47:48.933Z,2.47
2018-10-03T17:50:17.886Z,2.73
2018-10-03T17:52:46.250Z,2.37
2018-10-03T17:55:14.679Z,3.33
2018-10-03T17:57:44.201Z,2.43
2018-10-03T18:00:12.802Z,2.20
2018-10-03T18:02:41.340Z,2.57
2018-10-03T18:05:12.400Z,1.93
2018-10-03T18:07:42.725Z,1.83
2018-10-03T18:10:11.216Z,1.87
2018-10-03T18:12:39.652Z,1.90
2018-10-03T18:15:08.080Z,2.03
2018-10-03T18:17:36.591Z,2.10
2018-10-03T18:20:05.951Z,2.43
2018-10-03T18:22:34.761Z,2.00
2018-10-03T18:25:03.700Z,2.20
2018-10-03T18:27:32.170Z,2.30
2018-10-03T18:30:01.191Z,2.33
2018-10-03T18:32:29.868Z,2.17
2018-10-03T18:34:59.139Z,2.37
2018-10-03T18:37:27.587Z,2.50
2018-10-03T18:39:56.066Z,2.20
2018-10-03T18:42:24.821Z,2.07
2018-10-03T18:44:53.840Z,2.20
2018-10-03T18:47:22.658Z,2.40
2018-10-03T18:49:51.409Z,2.50
2018-10-03T18:52:20.015Z,2.10
2018-10-03T18:54:48.726Z,2.00
2018-10-03T18:57:17.541Z,2.13
2018-10-03T18:59:45.999Z,3.07
2018-10-03T19:02:14.411Z,2.80
2018-10-03T19:04:42.841Z,2.97
2018-10-03T19:07:12.471Z,3.00
2018-10-03T19:09:41.128Z,3.73
2018-10-03T19:12:09.760Z,2.80
2018-10-03T19:14:38.048Z,2.50
2018-10-03T19:17:06.456Z,2.70
2018-10-03T19:19:34.855Z,2.63
2018-10-03T19:22:03.254Z,3.10
2018-10-03T19:24:31.654Z,2.10
2018-10-03T19:27:00.086Z,2.93
2018-10-03T19:29:28.487Z,2.63
2018-10-03T19:31:56.879Z,2.00
2018-10-03T19:34:25.271Z,2.27
2018-10-03T19:36:53.675Z,2.10
2018-10-03T19:39:22.211Z,2.27
2018-10-03T19:41:50.579Z,2.27
2018-10-03T19:44:19.000Z,2.43
2018-10-03T19:46:47.388Z,2.77
2018-10-03T19:49:15.807Z,2.10
2018-10-03T19:51:45.156Z,2.77
2018-10-03T19:54:13.619Z,2.23
2018-10-03T19:56:42.326Z,2.30
2018-10-03T19:59:10.756Z,2.27
2018-10-03T20:01:39.180Z,2.67
2018-10-03T20:04:07.676Z,2.40
2018-10-03T20:06:36.036Z,2.20
2018-10-03T20:09:05.575Z,2.70
2018-10-03T20:11:34.276Z,2.03
2018-10-03T20:14:02.670Z,2.10
2018-10-03T20:16:31.323Z,2.43
2018-10-03T20:18:59.814Z,2.27
2018-10-03T20:21:28.335Z,2.00
2018-10-03T20:23:56.631Z,2.57
2018-10-03T20:26:25.040Z,2.10
2018-10-03T20:28:53.415Z,2.30
2018-10-03T20:31:22.139Z,2.77
2018-10-03T20:33:50.519Z,2.50
2018-10-03T20:36:19.127Z,2.47
2018-10-03T20:38:47.603Z,2.63
2018-10-03T20:41:16.033Z,2.67
2018-10-03T20:43:44.423Z,2.97
2018-10-03T20:46:12.816Z,2.93
2018-10-03T20:48:41.419Z,2.73
2018-10-03T20:51:09.896Z,2.83
2018-10-03T20:53:38.283Z,2.30
2018-10-03T20:56:06.872Z,2.53
2018-10-03T20:58:35.539Z,2.47
2018-10-03T21:01:04.240Z,2.00
2018-10-03T21:03:32.971Z,2.70
2018-10-03T21:06:01.455Z,2.60
2018-10-03T21:08:29.962Z,2.53
2018-10-03T21:10:58.325Z,2.33
2018-10-03T21:13:26.932Z,3.17
2018-10-03T21:15:55.407Z,2.90
2018-10-03T21:18:23.799Z,2.40
2018-10-03T21:20:52.228Z,2.10
2018-10-03T21:23:20.611Z,2.80
2018-10-03T21:25:49.234Z,2.63
2018-10-03T21:28:17.702Z,2.33
2018-10-03T21:30:46.168Z,2.20
2018-10-03T21:33:14.821Z,2.33
2018-10-03T21:35:43.311Z,2.30
2018-10-03T21:38:11.694Z,2.30
2018-10-03T21:40:40.379Z,2.33
2018-10-03T21:43:08.863Z,2.67
2018-10-03T21:45:37.271Z,3.00
2018-10-03T21:48:05.679Z,2.30
2018-10-03T21:50:34.063Z,2.40
2018-10-03T21:53:02.459Z,2.63
2018-10-03T21:55:30.854Z,2.83
2018-10-03T21:57:59.260Z,2.47
2018-10-03T22:00:36.616Z,2.93
2018-10-03T22:03:05.617Z,2.50
2018-10-03T22:05:34.115Z,2.57
2018-10-03T22:08:02.786Z,2.83
2018-10-03T22:10:31.318Z,2.50
2018-10-03T22:12:59.740Z,2.20
2018-10-03T22:15:28.159Z,3.40
2018-10-03T22:17:56.590Z,2.53
2018-10-03T22:20:25.240Z,2.80
2018-10-03T22:22:53.809Z,2.10
2018-10-03T22:25:22.226Z,2.90
2018-10-03T22:27:50.598Z,2.50
2018-10-03T22:30:19.063Z,2.73
2018-10-03T22:32:59.833Z,2.27
2018-10-03T22:35:28.718Z,2.57
2018-10-03T22:37:57.841Z,2.40
2018-10-03T22:40:26.927Z,2.17
2018-10-03T22:42:55.796Z,2.17
2018-10-03T22:45:24.599Z,2.20
2018-10-03T22:47:53.417Z,2.00
2018-10-03T22:50:21.816Z,2.00
2018-10-03T22:52:50.243Z,2.20
2018-10-03T22:55:18.912Z,1.90
2018-10-03T22:57:47.568Z,1.80
2018-10-03T23:00:16.085Z,2.87
2018-10-03T23:02:44.521Z,2.10
2018-10-03T23:05:13.157Z,2.20
2018-10-03T23:07:43.451Z,2.27
2018-10-03T23:10:11.865Z,2.37
2018-10-03T23:12:40.280Z,2.60
2018-10-03T23:15:08.678Z,2.50
2018-10-03T23:17:37.284Z,2.30
2018-10-03T23:20:05.798Z,2.07
2018-10-03T23:22:34.181Z,2.37
2018-10-03T23:25:02.571Z,2.17
2018-10-03T23:27:31.192Z,2.10
2018-10-03T23:29:59.670Z,2.10
2018-10-03T23:32:28.049Z,2.13
2018-10-03T23:34:56.460Z,2.77
2018-10-03T23:37:25.076Z,2.43
2018-10-03T23:39:53.559Z,1.87
2018-10-03T23:42:21.961Z,2.00
2018-10-03T23:44:50.330Z,2.37
2018-10-03T23:47:18.940Z,2.60
2018-10-03T23:49:47.648Z,2.23
2018-10-03T23:52:16.119Z,2.43
2018-10-03T23:54:44.518Z,2.40
2018-10-03T23:57:13.141Z,2.30
2018-10-03T23:59:41.762Z,2.27
